TimeAKST,TemperatureF,Dew PointF,Humidity,Sea Level PressureIn,VisibilityMPH,Wind Direction,Wind SpeedMPH,Gust SpeedMPH,PrecipitationIn,Events,Conditions,WindDirDegrees,DateUTC
12:53 AM,17.1,8.1,68,30.51,10.0,Calm,Calm,-,N/A,,Clear,0,2014-02-06 09:53:00
1:53 AM,14.0,8.1,77,30.49,10.0,Calm,Calm,-,N/A,,Clear,0,2014-02-06 10:53:00
3:53 AM,12.9,9.0,84,30.45,10.0,Calm,Calm,-,N/A,,Clear,0,2014-02-06 12:53:00
4:53 AM,12.0,7.0,80,30.43,10.0,Calm,Calm,-,N/A,,Clear,0,2014-02-06 13:53:00
5:53 AM,12.0,8.1,84,30.41,9.0,Calm,Calm,-,0.00,Snow,Light Snow,0,2014-02-06 14:53:00
6:53 AM,10.9,8.1,88,30.39,10.0,Calm,Calm,-,N/A,,Clear,0,2014-02-06 15:53:00
7:53 AM,12.0,8.1,84,30.37,10.0,Calm,Calm,-,N/A,,Clear,0,2014-02-06 16:53:00
8:53 AM,12.9,9.0,84,30.35,10.0,Calm,Calm,-,N/A,,Clear,0,2014-02-06 17:53:00
9:53 AM,18.0,12.9,81,30.32,10.0,Calm,Calm,-,N/A,,Clear,0,2014-02-06 18:53:00
10:53 AM,21.0,10.0,63,30.28,10.0,Calm,Calm,-,N/A,,Clear,0,2014-02-06 19:53:00
11:53 AM,24.1,9.0,53,30.24,10.0,SW,3.5,-,N/A,,Clear,220,2014-02-06 20:53:00
12:53 PM,26.1,8.1,47,30.20,10.0,SW,5.8,-,N/A,,Clear,230,2014-02-06 21:53:00
1:53 PM,26.1,10.0,51,30.15,10.0,WSW,4.6,-,N/A,,Clear,250,2014-02-06 22:53:00
2:53 PM,26.1,12.0,55,30.11,10.0,SW,3.5,-,N/A,,Clear,230,2014-02-06 23:53:00
3:53 PM,21.9,10.0,60,30.07,10.0,SSE,4.6,-,N/A,,Partly Cloudy,150,2014-02-07 00:53:00
4:53 PM,23.0,9.0,55,30.04,10.0,ENE,3.5,-,N/A,,Partly Cloudy,60,2014-02-07 01:53:00
5:53 PM,15.1,7.0,70,30.01,10.0,ESE,3.5,-,N/A,,Partly Cloudy,120,2014-02-07 02:53:00
6:53 PM,16.0,10.0,77,29.98,10.0,Calm,Calm,-,N/A,,Partly Cloudy,0,2014-02-07 03:53:00
7:53 PM,12.9,8.1,81,29.96,10.0,Calm,Calm,-,N/A,,Partly Cloudy,0,2014-02-07 04:53:00
8:53 PM,14.0,10.0,84,29.95,10.0,Calm,Calm,-,N/A,,Clear,0,2014-02-07 05:53:00
9:53 PM,10.9,8.1,88,29.94,10.0,Calm,Calm,-,N/A,,Clear,0,2014-02-07 06:53:00
10:53 PM,12.0,8.1,84,29.92,10.0,Calm,Calm,-,N/A,,Clear,0,2014-02-07 07:53:00
11:53 PM,10.0,7.0,87,29.92,10.0,Calm,Calm,-,N/A,,Clear,0,2014-02-07 08:53:00